sensor_id;sensor_type;location;lat;lon;timestamp;P1;durP1;ratioP1;P2;durP2;ratioP2
24799;SDS011;12897;50.812;4.430;2023-07-20T00:00:52;10.03;;;2.50;;
24799;SDS011;12897;50.812;4.430;2023-07-20T00:03:19;8.93;;;2.50;;
24799;SDS011;12897;50.812;4.430;2023-07-20T00:05:49;13.68;;;3.10;;
24799;SDS011;12897;50.812;4.430;2023-07-20T00:08:17;12.78;;;2.87;;
24799;SDS011;12897;50.812;4.430;2023-07-20T00:10:45;7.72;;;2.72;;
24799;SDS011;12897;50.812;4.430;2023-07-20T00:13:13;10.63;;;3.33;;
24799;SDS011;12897;50.812;4.430;2023-07-20T00:15:41;8.28;;;2.47;;
24799;SDS011;12897;50.812;4.430;2023-07-20T00:18:09;8.00;;;2.75;;
24799;SDS011;12897;50.812;4.430;2023-07-20T00:20:37;10.48;;;3.05;;
24799;SDS011;12897;50.812;4.430;2023-07-20T00:23:04;8.08;;;2.72;;
24799;SDS011;12897;50.812;4.430;2023-07-20T00:25:32;9.25;;;2.58;;
24799;SDS011;12897;50.812;4.430;2023-07-20T00:28:00;14.33;;;3.45;;
24799;SDS011;12897;50.812;4.430;2023-07-20T00:30:27;10.82;;;2.90;;
24799;SDS011;12897;50.812;4.430;2023-07-20T00:32:55;7.87;;;2.50;;
24799;SDS011;12897;50.812;4.430;2023-07-20T00:35:22;9.85;;;3.17;;
24799;SDS011;12897;50.812;4.430;2023-07-20T00:37:50;8.65;;;2.90;;
24799;SDS011;12897;50.812;4.430;2023-07-20T00:40:17;6.00;;;2.90;;
24799;SDS011;12897;50.812;4.430;2023-07-20T00:42:45;11.60;;;3.37;;
24799;SDS011;12897;50.812;4.430;2023-07-20T00:45:13;8.58;;;3.02;;
24799;SDS011;12897;50.812;4.430;2023-07-20T00:47:40;8.18;;;2.95;;
24799;SDS011;12897;50.812;4.430;2023-07-20T00:50:08;8.40;;;2.98;;
24799;SDS011;12897;50.812;4.430;2023-07-20T00:52:37;10.90;;;2.80;;
24799;SDS011;12897;50.812;4.430;2023-07-20T00:55:06;13.40;;;3.30;;
24799;SDS011;12897;50.812;4.430;2023-07-20T00:57:35;9.90;;;2.72;;
24799;SDS011;12897;50.812;4.430;2023-07-20T01:00:03;7.62;;;2.80;;
24799;SDS011;12897;50.812;4.430;2023-07-20T01:02:32;10.23;;;3.00;;
24799;SDS011;12897;50.812;4.430;2023-07-20T01:05:00;9.05;;;3.33;;
24799;SDS011;12897;50.812;4.430;2023-07-20T01:07:31;14.23;;;3.00;;
24799;SDS011;12897;50.812;4.430;2023-07-20T01:15:03;9.30;;;3.72;;
24799;SDS011;12897;50.812;4.430;2023-07-20T01:17:33;11.35;;;4.12;;
24799;SDS011;12897;50.812;4.430;2023-07-20T01:20:01;8.40;;;2.72;;
24799;SDS011;12897;50.812;4.430;2023-07-20T01:22:38;6.97;;;2.98;;
24799;SDS011;12897;50.812;4.430;2023-07-20T01:25:18;10.08;;;3.10;;
24799;SDS011;12897;50.812;4.430;2023-07-20T01:33:37;11.00;;;3.22;;
24799;SDS011;12897;50.812;4.430;2023-07-20T01:38:35;14.58;;;4.17;;
24799;SDS011;12897;50.812;4.430;2023-07-20T01:41:03;15.08;;;4.87;;
24799;SDS011;12897;50.812;4.430;2023-07-20T01:43:32;16.82;;;4.42;;
24799;SDS011;12897;50.812;4.430;2023-07-20T01:46:00;10.53;;;4.00;;
24799;SDS011;12897;50.812;4.430;2023-07-20T01:48:28;11.03;;;3.62;;
24799;SDS011;12897;50.812;4.430;2023-07-20T01:50:55;13.80;;;4.00;;
24799;SDS011;12897;50.812;4.430;2023-07-20T01:53:23;13.75;;;4.12;;
24799;SDS011;12897;50.812;4.430;2023-07-20T01:55:52;9.98;;;3.30;;
24799;SDS011;12897;50.812;4.430;2023-07-20T02:00:47;10.58;;;4.03;;
24799;SDS011;12897;50.812;4.430;2023-07-20T02:03:14;15.63;;;4.92;;
24799;SDS011;12897;50.812;4.430;2023-07-20T02:05:42;12.75;;;4.12;;
24799;SDS011;12897;50.812;4.430;2023-07-20T02:08:10;13.50;;;4.35;;
24799;SDS011;12897;50.812;4.430;2023-07-20T02:10:37;12.33;;;4.62;;
24799;SDS011;12897;50.812;4.430;2023-07-20T02:13:05;11.28;;;4.50;;
24799;SDS011;12897;50.812;4.430;2023-07-20T02:15:32;15.95;;;5.58;;
24799;SDS011;12897;50.812;4.430;2023-07-20T02:18:00;18.62;;;5.30;;
24799;SDS011;12897;50.812;4.430;2023-07-20T02:20:29;14.73;;;5.42;;
24799;SDS011;12897;50.812;4.430;2023-07-20T02:22:56;13.43;;;5.58;;
24799;SDS011;12897;50.812;4.430;2023-07-20T02:25:24;20.32;;;5.70;;
24799;SDS011;12897;50.812;4.430;2023-07-20T02:27:51;13.65;;;5.47;;
24799;SDS011;12897;50.812;4.430;2023-07-20T02:30:19;18.17;;;5.53;;
24799;SDS011;12897;50.812;4.430;2023-07-20T02:32:47;19.05;;;5.70;;
24799;SDS011;12897;50.812;4.430;2023-07-20T02:35:15;12.35;;;5.10;;
24799;SDS011;12897;50.812;4.430;2023-07-20T02:37:43;21.00;;;6.10;;
24799;SDS011;12897;50.812;4.430;2023-07-20T02:40:11;17.85;;;6.00;;
24799;SDS011;12897;50.812;4.430;2023-07-20T02:42:38;18.90;;;6.17;;
24799;SDS011;12897;50.812;4.430;2023-07-20T02:45:06;17.62;;;6.20;;
24799;SDS011;12897;50.812;4.430;2023-07-20T02:47:34;18.37;;;5.92;;
24799;SDS011;12897;50.812;4.430;2023-07-20T02:50:02;18.40;;;6.67;;
24799;SDS011;12897;50.812;4.430;2023-07-20T02:52:30;21.82;;;7.90;;
24799;SDS011;12897;50.812;4.430;2023-07-20T02:54:57;17.45;;;7.62;;
24799;SDS011;12897;50.812;4.430;2023-07-20T02:57:25;24.37;;;8.20;;
24799;SDS011;12897;50.812;4.430;2023-07-20T02:59:53;23.30;;;9.18;;
24799;SDS011;12897;50.812;4.430;2023-07-20T03:02:21;20.12;;;9.23;;
24799;SDS011;12897;50.812;4.430;2023-07-20T03:04:48;19.62;;;8.48;;
24799;SDS011;12897;50.812;4.430;2023-07-20T03:07:16;21.93;;;8.13;;
24799;SDS011;12897;50.812;4.430;2023-07-20T03:09:43;25.37;;;8.50;;
24799;SDS011;12897;50.812;4.430;2023-07-20T03:12:11;17.12;;;8.88;;
24799;SDS011;12897;50.812;4.430;2023-07-20T03:14:38;22.52;;;8.13;;
24799;SDS011;12897;50.812;4.430;2023-07-20T03:17:06;26.77;;;9.38;;
24799;SDS011;12897;50.812;4.430;2023-07-20T03:19:34;26.87;;;9.53;;
24799;SDS011;12897;50.812;4.430;2023-07-20T03:22:01;19.82;;;8.63;;
24799;SDS011;12897;50.812;4.430;2023-07-20T03:24:29;22.42;;;9.13;;
24799;SDS011;12897;50.812;4.430;2023-07-20T03:26:56;19.70;;;8.53;;
24799;SDS011;12897;50.812;4.430;2023-07-20T03:29:24;23.55;;;8.50;;
24799;SDS011;12897;50.812;4.430;2023-07-20T03:31:51;22.62;;;8.93;;
24799;SDS011;12897;50.812;4.430;2023-07-20T03:34:19;17.73;;;8.63;;
24799;SDS011;12897;50.812;4.430;2023-07-20T03:36:46;22.82;;;9.65;;
24799;SDS011;12897;50.812;4.430;2023-07-20T03:39:14;18.75;;;8.83;;
24799;SDS011;12897;50.812;4.430;2023-07-20T03:41:41;24.05;;;9.08;;
24799;SDS011;12897;50.812;4.430;2023-07-20T03:44:09;22.80;;;9.15;;
24799;SDS011;12897;50.812;4.430;2023-07-20T03:46:36;23.57;;;9.20;;
24799;SDS011;12897;50.812;4.430;2023-07-20T03:49:04;22.50;;;9.13;;
24799;SDS011;12897;50.812;4.430;2023-07-20T03:51:32;21.57;;;9.03;;
24799;SDS011;12897;50.812;4.430;2023-07-20T03:53:59;23.35;;;8.48;;
24799;SDS011;12897;50.812;4.430;2023-07-20T03:56:27;18.67;;;9.43;;
24799;SDS011;12897;50.812;4.430;2023-07-20T03:58:57;23.75;;;9.73;;
24799;SDS011;12897;50.812;4.430;2023-07-20T04:01:24;27.32;;;9.30;;
24799;SDS011;12897;50.812;4.430;2023-07-20T04:03:52;21.68;;;8.90;;
24799;SDS011;12897;50.812;4.430;2023-07-20T04:06:19;18.23;;;9.23;;
24799;SDS011;12897;50.812;4.430;2023-07-20T04:08:47;19.75;;;9.03;;
24799;SDS011;12897;50.812;4.430;2023-07-20T04:11:14;23.85;;;9.23;;
24799;SDS011;12897;50.812;4.430;2023-07-20T04:13:42;27.20;;;9.88;;
24799;SDS011;12897;50.812;4.430;2023-07-20T04:16:09;25.15;;;10.03;;
24799;SDS011;12897;50.812;4.430;2023-07-20T04:18:37;23.27;;;11.68;;
24799;SDS011;12897;50.812;4.430;2023-07-20T04:21:04;25.70;;;10.20;;
24799;SDS011;12897;50.812;4.430;2023-07-20T04:23:33;18.67;;;10.33;;
24799;SDS011;12897;50.812;4.430;2023-07-20T04:26:01;23.50;;;10.38;;
24799;SDS011;12897;50.812;4.430;2023-07-20T04:28:29;23.55;;;10.18;;
24799;SDS011;12897;50.812;4.430;2023-07-20T04:31:08;22.85;;;10.03;;
24799;SDS011;12897;50.812;4.430;2023-07-20T04:33:38;23.12;;;10.85;;
24799;SDS011;12897;50.812;4.430;2023-07-20T04:36:06;30.75;;;12.35;;
24799;SDS011;12897;50.812;4.430;2023-07-20T04:38:34;26.48;;;11.63;;
24799;SDS011;12897;50.812;4.430;2023-07-20T04:41:02;21.52;;;11.68;;
24799;SDS011;12897;50.812;4.430;2023-07-20T04:43:29;22.37;;;12.25;;
24799;SDS011;12897;50.812;4.430;2023-07-20T04:45:57;28.30;;;12.00;;
24799;SDS011;12897;50.812;4.430;2023-07-20T04:48:24;23.70;;;11.75;;
24799;SDS011;12897;50.812;4.430;2023-07-20T04:50:52;23.47;;;11.22;;
24799;SDS011;12897;50.812;4.430;2023-07-20T04:53:21;28.83;;;11.67;;
24799;SDS011;12897;50.812;4.430;2023-07-20T04:55:49;24.72;;;11.65;;
24799;SDS011;12897;50.812;4.430;2023-07-20T04:58:18;20.48;;;11.53;;
24799;SDS011;12897;50.812;4.430;2023-07-20T05:00:47;24.52;;;11.48;;
24799;SDS011;12897;50.812;4.430;2023-07-20T05:03:15;26.37;;;12.70;;
24799;SDS011;12897;50.812;4.430;2023-07-20T05:05:43;25.02;;;11.48;;
24799;SDS011;12897;50.812;4.430;2023-07-20T05:08:10;17.27;;;10.15;;
24799;SDS011;12897;50.812;4.430;2023-07-20T05:10:38;29.37;;;12.33;;
24799;SDS011;12897;50.812;4.430;2023-07-20T05:13:06;23.90;;;12.55;;
24799;SDS011;12897;50.812;4.430;2023-07-20T05:15:33;25.48;;;12.82;;
24799;SDS011;12897;50.812;4.430;2023-07-20T05:18:01;26.00;;;11.65;;
24799;SDS011;12897;50.812;4.430;2023-07-20T05:20:28;23.57;;;11.45;;
24799;SDS011;12897;50.812;4.430;2023-07-20T05:22:57;21.07;;;11.28;;
24799;SDS011;12897;50.812;4.430;2023-07-20T05:25:25;27.98;;;13.28;;
24799;SDS011;12897;50.812;4.430;2023-07-20T05:27:52;25.05;;;11.68;;
24799;SDS011;12897;50.812;4.430;2023-07-20T05:30:21;23.57;;;11.53;;
24799;SDS011;12897;50.812;4.430;2023-07-20T05:32:48;26.45;;;12.10;;
24799;SDS011;12897;50.812;4.430;2023-07-20T05:35:18;21.93;;;12.28;;
24799;SDS011;12897;50.812;4.430;2023-07-20T05:37:45;24.80;;;10.55;;
24799;SDS011;12897;50.812;4.430;2023-07-20T05:40:14;23.12;;;11.03;;
24799;SDS011;12897;50.812;4.430;2023-07-20T05:42:43;23.38;;;11.80;;
24799;SDS011;12897;50.812;4.430;2023-07-20T05:45:12;25.62;;;10.10;;
24799;SDS011;12897;50.812;4.430;2023-07-20T05:47:40;26.65;;;11.40;;
24799;SDS011;12897;50.812;4.430;2023-07-20T05:50:09;21.27;;;11.10;;
24799;SDS011;12897;50.812;4.430;2023-07-20T05:52:37;20.30;;;10.78;;
24799;SDS011;12897;50.812;4.430;2023-07-20T05:55:05;19.87;;;10.35;;
24799;SDS011;12897;50.812;4.430;2023-07-20T05:57:33;22.95;;;11.33;;
24799;SDS011;12897;50.812;4.430;2023-07-20T06:00:01;19.55;;;10.00;;
24799;SDS011;12897;50.812;4.430;2023-07-20T06:02:30;22.27;;;10.18;;
24799;SDS011;12897;50.812;4.430;2023-07-20T06:04:59;17.80;;;9.35;;
24799;SDS011;12897;50.812;4.430;2023-07-20T06:07:26;11.93;;;7.80;;
24799;SDS011;12897;50.812;4.430;2023-07-20T06:09:54;16.93;;;7.15;;
24799;SDS011;12897;50.812;4.430;2023-07-20T06:12:22;12.88;;;7.00;;
24799;SDS011;12897;50.812;4.430;2023-07-20T06:14:50;12.88;;;6.72;;
24799;SDS011;12897;50.812;4.430;2023-07-20T06:17:18;11.48;;;6.83;;
24799;SDS011;12897;50.812;4.430;2023-07-20T06:19:47;9.73;;;5.83;;
24799;SDS011;12897;50.812;4.430;2023-07-20T06:22:15;12.37;;;6.40;;
24799;SDS011;12897;50.812;4.430;2023-07-20T06:24:42;11.50;;;6.53;;
24799;SDS011;12897;50.812;4.430;2023-07-20T06:27:10;11.60;;;6.60;;
24799;SDS011;12897;50.812;4.430;2023-07-20T06:29:38;10.60;;;6.50;;
24799;SDS011;12897;50.812;4.430;2023-07-20T06:32:05;10.43;;;5.50;;
24799;SDS011;12897;50.812;4.430;2023-07-20T06:34:34;11.75;;;5.28;;
24799;SDS011;12897;50.812;4.430;2023-07-20T06:37:03;11.88;;;4.45;;
24799;SDS011;12897;50.812;4.430;2023-07-20T06:39:34;12.18;;;5.60;;
24799;SDS011;12897;50.812;4.430;2023-07-20T06:42:05;10.80;;;5.85;;
24799;SDS011;12897;50.812;4.430;2023-07-20T06:44:41;10.68;;;5.80;;
24799;SDS011;12897;50.812;4.430;2023-07-20T06:47:08;14.38;;;4.90;;
24799;SDS011;12897;50.812;4.430;2023-07-20T06:49:53;9.33;;;5.35;;
24799;SDS011;12897;50.812;4.430;2023-07-20T06:52:23;10.63;;;5.15;;
24799;SDS011;12897;50.812;4.430;2023-07-20T06:54:57;10.43;;;5.55;;
24799;SDS011;12897;50.812;4.430;2023-07-20T06:57:35;8.38;;;5.25;;
24799;SDS011;12897;50.812;4.430;2023-07-20T07:00:05;9.95;;;4.92;;
24799;SDS011;12897;50.812;4.430;2023-07-20T07:02:36;10.55;;;4.85;;
24799;SDS011;12897;50.812;4.430;2023-07-20T07:05:06;18.60;;;5.15;;
24799;SDS011;12897;50.812;4.430;2023-07-20T07:07:41;10.08;;;4.62;;
24799;SDS011;12897;50.812;4.430;2023-07-20T07:10:10;9.28;;;4.55;;
24799;SDS011;12897;50.812;4.430;2023-07-20T07:12:38;8.33;;;5.40;;
24799;SDS011;12897;50.812;4.430;2023-07-20T07:15:10;9.10;;;3.08;;
24799;SDS011;12897;50.812;4.430;2023-07-20T07:17:54;6.60;;;3.12;;
24799;SDS011;12897;50.812;4.430;2023-07-20T07:20:16;10.00;;;3.40;;
24799;SDS011;12897;50.812;4.430;2023-07-20T07:25:35;8.15;;;3.22;;
24799;SDS011;12897;50.812;4.430;2023-07-20T07:30:36;4.47;;;2.72;;
24799;SDS011;12897;50.812;4.430;2023-07-20T07:33:08;4.87;;;2.70;;
24799;SDS011;12897;50.812;4.430;2023-07-20T07:35:36;5.70;;;2.20;;
24799;SDS011;12897;50.812;4.430;2023-07-20T07:40:39;6.05;;;2.30;;
24799;SDS011;12897;50.812;4.430;2023-07-20T07:43:16;5.08;;;1.45;;
24799;SDS011;12897;50.812;4.430;2023-07-20T07:45:54;2.62;;;1.47;;
24799;SDS011;12897;50.812;4.430;2023-07-20T07:50:56;2.98;;;1.98;;
24799;SDS011;12897;50.812;4.430;2023-07-20T07:58:43;6.53;;;1.47;;
24799;SDS011;12897;50.812;4.430;2023-07-20T08:04:25;2.80;;;1.30;;
24799;SDS011;12897;50.812;4.430;2023-07-20T08:09:48;9.60;;;3.62;;
24799;SDS011;12897;50.812;4.430;2023-07-20T08:12:22;7.10;;;3.47;;
24799;SDS011;12897;50.812;4.430;2023-07-20T08:14:54;5.20;;;3.37;;
24799;SDS011;12897;50.812;4.430;2023-07-20T08:17:28;6.42;;;2.83;;
24799;SDS011;12897;50.812;4.430;2023-07-20T08:20:16;6.08;;;2.77;;
24799;SDS011;12897;50.812;4.430;2023-07-20T08:22:48;9.40;;;3.00;;
24799;SDS011;12897;50.812;4.430;2023-07-20T08:25:28;6.20;;;2.50;;
24799;SDS011;12897;50.812;4.430;2023-07-20T08:28:07;7.78;;;2.62;;
24799;SDS011;12897;50.812;4.430;2023-07-20T08:31:11;6.97;;;3.87;;
24799;SDS011;12897;50.812;4.430;2023-07-20T08:33:19;4.95;;;3.42;;
24799;SDS011;12897;50.812;4.430;2023-07-20T08:35:56;7.08;;;3.65;;
24799;SDS011;12897;50.812;4.430;2023-07-20T08:38:39;8.83;;;3.90;;
24799;SDS011;12897;50.812;4.430;2023-07-20T08:41:21;6.45;;;3.70;;
24799;SDS011;12897;50.812;4.430;2023-07-20T08:44:13;11.45;;;3.95;;
24799;SDS011;12897;50.812;4.430;2023-07-20T08:46:38;7.15;;;3.55;;
24799;SDS011;12897;50.812;4.430;2023-07-20T08:49:06;8.50;;;3.80;;
24799;SDS011;12897;50.812;4.430;2023-07-20T09:07:40;7.60;;;2.10;;
24799;SDS011;12897;50.812;4.430;2023-07-20T09:10:15;5.90;;;2.10;;
24799;SDS011;12897;50.812;4.430;2023-07-20T09:12:41;6.00;;;2.15;;
24799;SDS011;12897;50.812;4.430;2023-07-20T09:17:52;4.53;;;2.15;;
24799;SDS011;12897;50.812;4.430;2023-07-20T09:20:39;6.00;;;1.62;;
24799;SDS011;12897;50.812;4.430;2023-07-20T09:23:18;4.45;;;2.02;;
24799;SDS011;12897;50.812;4.430;2023-07-20T09:25:37;5.70;;;2.77;;
24799;SDS011;12897;50.812;4.430;2023-07-20T09:28:15;5.53;;;1.82;;
24799;SDS011;12897;50.812;4.430;2023-07-20T09:30:52;4.03;;;1.90;;
24799;SDS011;12897;50.812;4.430;2023-07-20T09:36:01;3.37;;;2.00;;
24799;SDS011;12897;50.812;4.430;2023-07-20T09:38:24;3.83;;;2.00;;
24799;SDS011;12897;50.812;4.430;2023-07-20T09:41:12;5.33;;;1.80;;
24799;SDS011;12897;50.812;4.430;2023-07-20T09:43:42;5.10;;;1.80;;
24799;SDS011;12897;50.812;4.430;2023-07-20T09:46:18;3.40;;;2.00;;
24799;SDS011;12897;50.812;4.430;2023-07-20T09:48:39;6.33;;;1.80;;
24799;SDS011;12897;50.812;4.430;2023-07-20T09:51:10;4.92;;;1.75;;
24799;SDS011;12897;50.812;4.430;2023-07-20T09:53:47;5.15;;;1.50;;
24799;SDS011;12897;50.812;4.430;2023-07-20T09:58:49;2.45;;;1.55;;
24799;SDS011;12897;50.812;4.430;2023-07-20T10:03:54;2.08;;;1.30;;
24799;SDS011;12897;50.812;4.430;2023-07-20T10:06:22;2.58;;;1.47;;
24799;SDS011;12897;50.812;4.430;2023-07-20T10:08:55;2.83;;;1.27;;
24799;SDS011;12897;50.812;4.430;2023-07-20T10:11:29;2.72;;;1.40;;
24799;SDS011;12897;50.812;4.430;2023-07-20T10:14:04;4.67;;;1.42;;
24799;SDS011;12897;50.812;4.430;2023-07-20T10:19:20;3.52;;;1.50;;
24799;SDS011;12897;50.812;4.430;2023-07-20T10:22:10;5.75;;;1.35;;
24799;SDS011;12897;50.812;4.430;2023-07-20T10:24:46;4.42;;;1.20;;
24799;SDS011;12897;50.812;4.430;2023-07-20T10:30:07;5.33;;;1.57;;
24799;SDS011;12897;50.812;4.430;2023-07-20T10:32:17;4.20;;;1.50;;
24799;SDS011;12897;50.812;4.430;2023-07-20T10:34:55;2.12;;;1.20;;
24799;SDS011;12897;50.812;4.430;2023-07-20T10:40:38;2.80;;;1.35;;
24799;SDS011;12897;50.812;4.430;2023-07-20T10:43:17;2.77;;;1.50;;
24799;SDS011;12897;50.812;4.430;2023-07-20T10:45:49;4.08;;;1.12;;
24799;SDS011;12897;50.812;4.430;2023-07-20T10:51:12;4.50;;;1.42;;
24799;SDS011;12897;50.812;4.430;2023-07-20T10:53:53;3.42;;;1.40;;
24799;SDS011;12897;50.812;4.430;2023-07-20T10:56:30;4.22;;;1.40;;
24799;SDS011;12897;50.812;4.430;2023-07-20T11:01:35;2.15;;;1.50;;
24799;SDS011;12897;50.812;4.430;2023-07-20T11:06:37;6.40;;;1.60;;
24799;SDS011;12897;50.812;4.430;2023-07-20T11:09:09;4.67;;;1.82;;
24799;SDS011;12897;50.812;4.430;2023-07-20T11:11:47;1.20;;;1.10;;
24799;SDS011;12897;50.812;4.430;2023-07-20T11:14:24;3.60;;;1.75;;
24799;SDS011;12897;50.812;4.430;2023-07-20T11:17:10;2.62;;;1.52;;
24799;SDS011;12897;50.812;4.430;2023-07-20T11:19:49;1.77;;;1.25;;
24799;SDS011;12897;50.812;4.430;2023-07-20T11:22:16;7.37;;;1.95;;
24799;SDS011;12897;50.812;4.430;2023-07-20T11:24:59;6.67;;;2.87;;
24799;SDS011;12897;50.812;4.430;2023-07-20T11:27:28;5.47;;;1.82;;
24799;SDS011;12897;50.812;4.430;2023-07-20T11:30:15;5.20;;;1.65;;
24799;SDS011;12897;50.812;4.430;2023-07-20T11:32:26;2.30;;;1.50;;
24799;SDS011;12897;50.812;4.430;2023-07-20T11:34:53;16.62;;;3.83;;
24799;SDS011;12897;50.812;4.430;2023-07-20T11:37:23;5.35;;;1.80;;
24799;SDS011;12897;50.812;4.430;2023-07-20T11:39:57;4.85;;;1.60;;
24799;SDS011;12897;50.812;4.430;2023-07-20T11:42:32;6.08;;;2.52;;
24799;SDS011;12897;50.812;4.430;2023-07-20T11:45:03;4.62;;;2.20;;
24799;SDS011;12897;50.812;4.430;2023-07-20T11:47:30;5.55;;;2.08;;
24799;SDS011;12897;50.812;4.430;2023-07-20T11:50:07;2.77;;;2.20;;
24799;SDS011;12897;50.812;4.430;2023-07-20T11:52:46;4.90;;;2.30;;
24799;SDS011;12897;50.812;4.430;2023-07-20T11:55:22;4.58;;;2.00;;
24799;SDS011;12897;50.812;4.430;2023-07-20T11:58:08;4.83;;;2.20;;
24799;SDS011;12897;50.812;4.430;2023-07-20T12:00:38;11.22;;;3.72;;
24799;SDS011;12897;50.812;4.430;2023-07-20T12:03:13;6.45;;;2.50;;
24799;SDS011;12897;50.812;4.430;2023-07-20T12:05:49;4.95;;;2.50;;
24799;SDS011;12897;50.812;4.430;2023-07-20T12:08:32;5.40;;;2.40;;
24799;SDS011;12897;50.812;4.430;2023-07-20T12:11:07;4.60;;;2.70;;
24799;SDS011;12897;50.812;4.430;2023-07-20T12:16:30;5.85;;;2.40;;
24799;SDS011;12897;50.812;4.430;2023-07-20T12:18:50;4.62;;;2.70;;
24799;SDS011;12897;50.812;4.430;2023-07-20T12:24:27;4.00;;;2.12;;
24799;SDS011;12897;50.812;4.430;2023-07-20T12:26:55;3.67;;;2.45;;
24799;SDS011;12897;50.812;4.430;2023-07-20T12:29:19;4.37;;;2.17;;
24799;SDS011;12897;50.812;4.430;2023-07-20T12:31:51;3.60;;;2.22;;
24799;SDS011;12897;50.812;4.430;2023-07-20T12:34:23;2.83;;;2.17;;
24799;SDS011;12897;50.812;4.430;2023-07-20T12:36:54;4.62;;;2.10;;
24799;SDS011;12897;50.812;4.430;2023-07-20T12:39:31;2.80;;;2.15;;
24799;SDS011;12897;50.812;4.430;2023-07-20T12:42:10;2.58;;;1.90;;
24799;SDS011;12897;50.812;4.430;2023-07-20T12:44:31;5.60;;;1.98;;
24799;SDS011;12897;50.812;4.430;2023-07-20T12:47:00;3.08;;;2.25;;
24799;SDS011;12897;50.812;4.430;2023-07-20T12:49:33;7.85;;;2.37;;
24799;SDS011;12897;50.812;4.430;2023-07-20T12:52:12;3.25;;;1.82;;
24799;SDS011;12897;50.812;4.430;2023-07-20T12:54:39;2.17;;;1.85;;
24799;SDS011;12897;50.812;4.430;2023-07-20T12:59:40;6.10;;;2.27;;
24799;SDS011;12897;50.812;4.430;2023-07-20T13:02:11;4.65;;;2.40;;
24799;SDS011;12897;50.812;4.430;2023-07-20T13:04:47;6.25;;;3.55;;
24799;SDS011;12897;50.812;4.430;2023-07-20T13:09:47;3.70;;;2.22;;
24799;SDS011;12897;50.812;4.430;2023-07-20T13:12:21;5.58;;;2.40;;
24799;SDS011;12897;50.812;4.430;2023-07-20T13:15:00;3.33;;;2.17;;
24799;SDS011;12897;50.812;4.430;2023-07-20T13:17:38;6.20;;;3.25;;
24799;SDS011;12897;50.812;4.430;2023-07-20T13:20:10;9.20;;;3.20;;
24799;SDS011;12897;50.812;4.430;2023-07-20T13:25:15;2.65;;;2.00;;
24799;SDS011;12897;50.812;4.430;2023-07-20T13:27:48;2.75;;;2.37;;
24799;SDS011;12897;50.812;4.430;2023-07-20T13:30:19;4.33;;;2.67;;
24799;SDS011;12897;50.812;4.430;2023-07-20T13:32:56;6.67;;;2.77;;
24799;SDS011;12897;50.812;4.430;2023-07-20T13:35:32;6.03;;;3.30;;
24799;SDS011;12897;50.812;4.430;2023-07-20T13:38:08;5.97;;;2.40;;
24799;SDS011;12897;50.812;4.430;2023-07-20T13:40:32;6.17;;;2.60;;
24799;SDS011;12897;50.812;4.430;2023-07-20T13:43:05;3.90;;;2.35;;
24799;SDS011;12897;50.812;4.430;2023-07-20T13:45:37;6.25;;;2.33;;
24799;SDS011;12897;50.812;4.430;2023-07-20T13:48:08;6.67;;;2.87;;
24799;SDS011;12897;50.812;4.430;2023-07-20T13:53:25;4.72;;;2.33;;
24799;SDS011;12897;50.812;4.430;2023-07-20T13:55:55;3.52;;;2.40;;
24799;SDS011;12897;50.812;4.430;2023-07-20T13:58:21;6.60;;;2.75;;
24799;SDS011;12897;50.812;4.430;2023-07-20T14:00:52;3.95;;;2.50;;
24799;SDS011;12897;50.812;4.430;2023-07-20T14:03:21;3.95;;;2.20;;
24799;SDS011;12897;50.812;4.430;2023-07-20T14:06:00;5.50;;;2.27;;
24799;SDS011;12897;50.812;4.430;2023-07-20T14:08:29;4.78;;;2.00;;
24799;SDS011;12897;50.812;4.430;2023-07-20T14:10:57;5.42;;;1.92;;
24799;SDS011;12897;50.812;4.430;2023-07-20T14:13:28;2.25;;;1.67;;
24799;SDS011;12897;50.812;4.430;2023-07-20T14:15:56;4.83;;;1.90;;
24799;SDS011;12897;50.812;4.430;2023-07-20T14:18:28;6.28;;;1.72;;
24799;SDS011;12897;50.812;4.430;2023-07-20T14:20:59;2.30;;;1.77;;
24799;SDS011;12897;50.812;4.430;2023-07-20T14:23:30;4.67;;;2.00;;
24799;SDS011;12897;50.812;4.430;2023-07-20T14:26:02;5.17;;;1.80;;
24799;SDS011;12897;50.812;4.430;2023-07-20T14:28:31;2.67;;;1.77;;
24799;SDS011;12897;50.812;4.430;2023-07-20T14:31:09;3.37;;;1.72;;
24799;SDS011;12897;50.812;4.430;2023-07-20T14:33:40;3.95;;;1.57;;
24799;SDS011;12897;50.812;4.430;2023-07-20T14:36:09;5.67;;;2.83;;
24799;SDS011;12897;50.812;4.430;2023-07-20T14:38:40;2.00;;;1.62;;
24799;SDS011;12897;50.812;4.430;2023-07-20T14:41:13;2.87;;;1.57;;
24799;SDS011;12897;50.812;4.430;2023-07-20T14:43:45;5.58;;;1.60;;
24799;SDS011;12897;50.812;4.430;2023-07-20T14:46:17;5.12;;;1.90;;
24799;SDS011;12897;50.812;4.430;2023-07-20T14:48:48;2.72;;;1.60;;
24799;SDS011;12897;50.812;4.430;2023-07-20T14:51:31;4.83;;;1.70;;
24799;SDS011;12897;50.812;4.430;2023-07-20T14:53:52;3.05;;;1.60;;
24799;SDS011;12897;50.812;4.430;2023-07-20T14:56:24;5.40;;;2.00;;
24799;SDS011;12897;50.812;4.430;2023-07-20T14:59:02;5.08;;;2.50;;
24799;SDS011;12897;50.812;4.430;2023-07-20T15:01:26;3.35;;;1.90;;
24799;SDS011;12897;50.812;4.430;2023-07-20T15:03:57;3.55;;;1.87;;
24799;SDS011;12897;50.812;4.430;2023-07-20T15:09:14;3.62;;;1.85;;
24799;SDS011;12897;50.812;4.430;2023-07-20T15:11:44;2.98;;;1.82;;
24799;SDS011;12897;50.812;4.430;2023-07-20T15:14:18;5.42;;;2.10;;
24799;SDS011;12897;50.812;4.430;2023-07-20T15:19:28;3.62;;;1.70;;
24799;SDS011;12897;50.812;4.430;2023-07-20T15:24:38;4.62;;;2.30;;
24799;SDS011;12897;50.812;4.430;2023-07-20T15:27:05;4.20;;;1.70;;
24799;SDS011;12897;50.812;4.430;2023-07-20T15:29:37;3.05;;;1.67;;
24799;SDS011;12897;50.812;4.430;2023-07-20T15:32:04;3.60;;;1.60;;
24799;SDS011;12897;50.812;4.430;2023-07-20T15:34:32;6.28;;;1.75;;
24799;SDS011;12897;50.812;4.430;2023-07-20T15:37:07;3.15;;;2.08;;
24799;SDS011;12897;50.812;4.430;2023-07-20T15:39:41;2.70;;;1.80;;
24799;SDS011;12897;50.812;4.430;2023-07-20T15:42:11;4.95;;;1.90;;
24799;SDS011;12897;50.812;4.430;2023-07-20T15:44:47;4.00;;;1.90;;
24799;SDS011;12897;50.812;4.430;2023-07-20T15:47:13;5.58;;;2.40;;
24799;SDS011;12897;50.812;4.430;2023-07-20T15:49:42;2.45;;;1.70;;
24799;SDS011;12897;50.812;4.430;2023-07-20T15:54:48;6.17;;;2.52;;
24799;SDS011;12897;50.812;4.430;2023-07-20T15:57:27;10.35;;;4.05;;
24799;SDS011;12897;50.812;4.430;2023-07-20T15:59:54;10.93;;;3.72;;
24799;SDS011;12897;50.812;4.430;2023-07-20T16:02:23;9.50;;;3.62;;
24799;SDS011;12897;50.812;4.430;2023-07-20T16:04:52;13.78;;;4.85;;
24799;SDS011;12897;50.812;4.430;2023-07-20T16:07:22;12.15;;;5.90;;
24799;SDS011;12897;50.812;4.430;2023-07-20T16:12:19;12.78;;;5.92;;
24799;SDS011;12897;50.812;4.430;2023-07-20T16:14:48;15.38;;;7.97;;
24799;SDS011;12897;50.812;4.430;2023-07-20T16:17:18;8.38;;;6.30;;
24799;SDS011;12897;50.812;4.430;2023-07-20T16:19:47;13.40;;;7.30;;
24799;SDS011;12897;50.812;4.430;2023-07-20T16:22:18;12.68;;;7.10;;
24799;SDS011;12897;50.812;4.430;2023-07-20T16:24:45;9.88;;;6.92;;
24799;SDS011;12897;50.812;4.430;2023-07-20T16:27:13;9.40;;;5.87;;
24799;SDS011;12897;50.812;4.430;2023-07-20T16:29:40;14.30;;;6.90;;
24799;SDS011;12897;50.812;4.430;2023-07-20T16:32:08;9.75;;;6.42;;
24799;SDS011;12897;50.812;4.430;2023-07-20T16:34:37;8.55;;;6.58;;
24799;SDS011;12897;50.812;4.430;2023-07-20T16:37:06;10.13;;;7.15;;
24799;SDS011;12897;50.812;4.430;2023-07-20T16:39:34;6.85;;;5.90;;
24799;SDS011;12897;50.812;4.430;2023-07-20T16:42:09;10.78;;;5.92;;
24799;SDS011;12897;50.812;4.430;2023-07-20T16:47:19;9.50;;;5.60;;
24799;SDS011;12897;50.812;4.430;2023-07-20T16:55:06;7.35;;;5.25;;
24799;SDS011;12897;50.812;4.430;2023-07-20T16:57:33;10.28;;;5.78;;